Time;durP1;ratioP1;P1;durP2;ratioP2;P2;SDS_P1;SDS_P2;PMS_P1;PMS_P2;Temp;Humidity;BMP_temperature;BMP_pressure;BME280_temperature;BME280_humidity;BME280_pressure;Samples;Min_cycle;Max_cycle;Signal;HPM_P1;HPM_P2
2023/06/09 00:02:11;;;;;;;6.30;4.30;;;;;;;18.68;59.33;99546.59;107497;1254;67576;-40
2023/06/09 00:04:39;;;;;;;5.20;4.40;;;;;;;18.71;59.33;99546.48;107511;1254;72687;-40
2023/06/09 00:07:07;;;;;;;6.80;5.10;;;;;;;18.72;59.33;99545.05;107511;1254;60475;-39
2023/06/09 00:09:35;;;;;;;6.20;4.90;;;;;;;18.73;59.26;99545.36;107617;1254;60302;-39
2023/06/09 00:12:04;;;;;;;6.80;5.10;;;;;;;18.74;59.27;99543.70;107418;1254;73829;-40
2023/06/09 00:14:32;;;;;;;13.50;5.20;;;;;;;18.71;59.48;99542.23;107654;1253;66747;-40
2023/06/09 00:17:01;;;;;;;7.50;5.40;;;;;;;18.68;59.59;99541.89;107491;1254;72739;-39
2023/06/09 00:19:29;;;;;;;7.40;4.70;;;;;;;18.67;59.65;99539.92;107504;1258;60371;-40
2023/06/09 00:21:57;;;;;;;7.30;5.20;;;;;;;18.68;59.63;99537.95;107441;1259;60527;-40
2023/06/09 00:24:25;;;;;;;6.30;5.00;;;;;;;18.63;59.64;99533.61;107492;1253;73853;-40
2023/06/09 00:26:52;;;;;;;7.10;5.30;;;;;;;18.58;59.84;99535.40;107521;1253;67454;-40
2023/06/09 00:29:24;;;;;;;5.90;4.80;;;;;;;18.52;60.09;99534.10;107500;1258;72688;-40
2023/06/09 00:31:51;;;;;;;8.20;4.90;;;;;;;18.49;60.12;99535.13;107502;1257;61696;-40
2023/06/09 00:34:19;;;;;;;6.10;4.70;;;;;;;18.51;60.19;99535.28;107498;1253;60427;-40
2023/06/09 00:36:48;;;;;;;5.80;4.90;;;;;;;18.50;60.33;99534.19;107495;1254;72372;-40
2023/06/09 00:39:16;;;;;;;10.10;5.30;;;;;;;18.46;60.52;99531.88;107425;1253;66443;-40
2023/06/09 00:41:43;;;;;;;7.40;4.80;;;;;;;18.44;60.49;99528.61;107498;1253;72709;-41
2023/06/09 00:44:12;;;;;;;6.30;4.70;;;;;;;18.42;60.65;99529.96;107453;1254;60338;-41
2023/06/09 00:46:41;;;;;;;6.70;5.20;;;;;;;18.39;60.64;99530.38;107511;1253;60370;-40
2023/06/09 00:49:09;;;;;;;6.20;4.90;;;;;;;18.35;60.81;99527.75;107496;1258;73874;-40
2023/06/09 00:51:37;;;;;;;10.30;5.50;;;;;;;18.33;60.85;99523.93;107421;1253;66316;-40
2023/06/09 00:54:05;;;;;;;7.80;5.20;;;;;;;18.29;60.83;99521.95;107496;1254;72719;-40
2023/06/09 00:56:34;;;;;;;8.60;5.10;;;;;;;18.25;60.90;99523.30;107288;1253;61878;-40
2023/06/09 00:59:02;;;;;;;8.40;5.30;;;;;;;18.26;61.08;99522.90;107512;1253;60325;-40
2023/06/09 01:01:32;;;;;;;5.80;4.90;;;;;;;18.29;61.08;99521.84;107458;1253;72619;-40
2023/06/09 01:04:01;;;;;;;7.60;4.90;;;;;;;18.32;61.35;99520.64;107521;1259;67598;-40
2023/06/09 01:06:38;;;;;;;6.00;5.10;;;;;;;18.36;61.02;99521.40;107440;1256;71962;-40
2023/06/09 01:09:33;;;;;;;7.70;5.10;;;;;;;18.38;61.04;99515.02;107499;1254;60185;-40
2023/06/09 01:12:16;;;;;;;8.90;5.30;;;;;;;18.36;61.00;99517.80;107510;1254;60428;-40
2023/06/09 01:14:47;;;;;;;7.70;5.10;;;;;;;18.31;61.04;99520.10;107526;1253;73857;-40
2023/06/09 01:17:18;;;;;;;6.70;5.00;;;;;;;18.28;61.04;99520.30;107512;1254;66274;-40
2023/06/09 01:19:48;;;;;;;7.20;5.20;;;;;;;18.23;61.26;99515.09;107457;1254;71532;-40
2023/06/09 01:22:34;;;;;;;7.40;4.70;;;;;;;18.18;61.43;99517.10;107521;1254;61685;-40
2023/06/09 01:25:20;;;;;;;8.20;5.40;;;;;;;18.16;61.51;99515.46;107486;1254;61003;-40
2023/06/09 01:27:48;;;;;;;12.80;5.30;;;;;;;18.15;61.60;99517.05;107487;1253;73898;-40
2023/06/09 01:30:16;;;;;;;7.50;5.10;;;;;;;18.13;61.70;99515.20;107460;1254;67566;-40
2023/06/09 01:32:44;;;;;;;6.30;5.20;;;;;;;18.12;61.82;99512.05;107501;1254;72704;-40
2023/06/09 01:35:12;;;;;;;7.30;5.30;;;;;;;18.11;61.80;99510.20;107405;1253;60479;-40
2023/06/09 01:37:40;;;;;;;6.40;5.30;;;;;;;18.08;61.87;99509.27;107403;1254;60455;-40
2023/06/09 01:40:08;;;;;;;7.50;5.40;;;;;;;18.08;61.89;99503.78;107411;1253;72980;-40
2023/06/09 01:42:36;;;;;;;8.90;5.40;;;;;;;18.06;61.89;99507.48;107434;1254;66800;-40
2023/06/09 01:45:04;;;;;;;6.80;5.10;;;;;;;18.02;61.94;99504.30;107571;1254;71434;-40
2023/06/09 01:47:32;;;;;;;5.90;5.00;;;;;;;18.00;62.06;99503.09;107488;1254;61713;-40
2023/06/09 01:50:05;;;;;;;6.90;5.30;;;;;;;18.01;62.21;99501.19;107310;1256;60294;-40
2023/06/09 01:52:41;;;;;;;6.90;5.30;;;;;;;18.01;62.22;99499.31;107289;1255;73867;-40
2023/06/09 01:55:38;;;;;;;7.20;5.30;;;;;;;17.99;62.26;99503.88;107261;1256;68100;-40
2023/06/09 01:58:18;;;;;;;7.20;5.20;;;;;;;17.94;62.41;99503.84;107203;1256;72707;-41
2023/06/09 02:00:46;;;;;;;5.60;4.80;;;;;;;17.91;62.48;99501.74;107264;1256;60313;-40
2023/06/09 02:03:17;;;;;;;7.50;5.30;;;;;;;17.87;62.68;99504.05;107291;1255;60378;-40
2023/06/09 02:05:44;;;;;;;9.60;4.90;;;;;;;17.85;62.62;99505.72;107264;1256;73890;-40
2023/06/09 02:08:13;;;;;;;6.70;4.40;;;;;;;17.81;62.82;99508.17;107266;1256;66199;-40
2023/06/09 02:10:41;;;;;;;5.90;4.70;;;;;;;17.83;62.96;99510.42;107314;1255;72861;-40
2023/06/09 02:13:15;;;;;;;8.80;5.00;;;;;;;17.84;62.98;99511.05;107304;1256;60411;-40
2023/06/09 02:15:44;;;;;;;6.80;5.20;;;;;;;17.85;63.04;99514.65;107350;1257;60306;-40
2023/06/09 02:18:12;;;;;;;7.30;5.10;;;;;;;17.82;63.11;99512.94;107328;1257;73895;-40
2023/06/09 02:20:42;;;;;;;8.40;5.60;;;;;;;17.78;63.17;99513.29;107285;1257;66328;-40
2023/06/09 02:23:10;;;;;;;8.50;5.10;;;;;;;17.73;63.28;99515.36;107224;1257;72368;-40
2023/06/09 02:25:38;;;;;;;6.60;4.70;;;;;;;17.70;63.45;99517.74;107232;1256;61713;-40
2023/06/09 02:28:06;;;;;;;8.90;4.70;;;;;;;17.72;63.65;99516.63;107250;1257;60034;-40
2023/06/09 02:30:34;;;;;;;7.80;5.00;;;;;;;17.76;63.69;99514.01;107306;1259;72887;-41
2023/06/09 02:33:02;;;;;;;6.50;5.10;;;;;;;17.79;63.66;99511.16;107239;1256;67646;-41
2023/06/09 02:35:30;;;;;;;10.60;5.70;;;;;;;17.79;63.71;99511.01;107252;1260;72334;-41
2023/06/09 02:37:58;;;;;;;8.40;5.10;;;;;;;17.80;63.70;99511.79;107253;1260;60622;-40
2023/06/09 02:40:26;;;;;;;5.40;4.50;;;;;;;17.80;63.71;99511.00;107224;1256;60069;-41
2023/06/09 02:42:54;;;;;;;7.40;5.00;;;;;;;17.78;63.68;99512.11;107481;1255;73956;-41
2023/06/09 02:45:22;;;;;;;5.80;4.80;;;;;;;17.75;63.80;99513.63;107265;1256;66324;-41
2023/06/09 02:47:49;;;;;;;5.50;4.60;;;;;;;17.76;63.94;99515.58;107281;1256;71429;-41
2023/06/09 02:50:18;;;;;;;7.50;5.00;;;;;;;17.79;63.97;99521.27;107419;1254;60380;-41
2023/06/09 02:52:48;;;;;;;10.00;5.30;;;;;;;17.83;64.12;99523.84;107569;1254;60360;-41
2023/06/09 02:55:18;;;;;;;8.80;5.20;;;;;;;17.86;64.02;99526.94;107501;1254;72590;-41
2023/06/09 02:57:47;;;;;;;7.20;5.30;;;;;;;17.89;64.00;99528.96;107511;1253;65335;-41
2023/06/09 03:00:16;;;;;;;6.60;5.10;;;;;;;17.90;64.11;99531.23;107479;1254;72700;-41
2023/06/09 03:02:51;;;;;;;8.40;5.10;;;;;;;17.88;64.12;99536.09;107316;1254;279886;-41
2023/06/09 03:06:07;;;;;;;6.00;4.50;;;;;;;17.94;63.92;99534.33;104248;1292;601162;-40
2023/06/09 03:08:35;;;;;;;7.70;5.50;;;;;;;17.95;63.85;99534.23;106614;1272;59579;-40
2023/06/09 03:11:03;;;;;;;7.20;5.10;;;;;;;17.95;63.80;99535.57;106686;1269;59314;-40
2023/06/09 03:13:31;;;;;;;7.50;5.20;;;;;;;17.96;63.90;99533.04;106668;1272;70930;-40
2023/06/09 03:15:59;;;;;;;7.70;5.00;;;;;;;17.96;63.99;99536.59;106681;1271;66328;-40
2023/06/09 03:18:27;;;;;;;7.00;4.70;;;;;;;17.96;64.03;99535.56;106714;1267;71397;-41
2023/06/09 03:21:01;;;;;;;6.10;4.20;;;;;;;18.00;64.11;99533.64;106532;1264;61173;-40
2023/06/09 03:23:30;;;;;;;9.10;5.10;;;;;;;18.07;64.24;99531.00;106692;1264;60033;-40
2023/06/09 03:25:58;;;;;;;7.10;5.40;;;;;;;18.11;64.16;99537.46;106767;1264;72315;-40
2023/06/09 03:28:27;;;;;;;5.50;4.90;;;;;;;18.13;63.90;99543.17;106746;1269;66895;-40
2023/06/09 03:30:55;;;;;;;7.60;5.00;;;;;;;18.13;64.07;99540.34;106790;1268;72677;-40
2023/06/09 03:33:24;;;;;;;8.00;5.30;;;;;;;18.14;63.99;99542.46;106731;1268;59618;-40
2023/06/09 03:35:53;;;;;;;8.70;5.30;;;;;;;18.14;64.10;99540.10;106862;1264;59564;-40
2023/06/09 03:38:21;;;;;;;6.30;4.90;;;;;;;18.14;64.15;99540.36;106813;1269;71769;-40
2023/06/09 03:40:50;;;;;;;7.30;5.10;;;;;;;18.16;64.32;99538.45;106849;1267;66297;-40
2023/06/09 03:43:19;;;;;;;7.40;5.30;;;;;;;18.21;64.25;99541.84;106670;1264;71406;-40
2023/06/09 03:45:47;;;;;;;7.70;5.30;;;;;;;18.24;64.30;99540.87;106738;1270;60100;-40
2023/06/09 03:48:16;;;;;;;8.50;5.50;;;;;;;18.26;64.20;99542.19;106847;1269;59268;-40
2023/06/09 03:50:44;;;;;;;7.10;5.80;;;;;;;18.25;64.25;99542.83;106825;1264;73083;-40
2023/06/09 03:53:12;;;;;;;10.20;5.80;;;;;;;18.25;64.58;99541.80;106827;1264;66290;-40
2023/06/09 03:55:40;;;;;;;7.20;5.40;;;;;;;18.23;64.78;99542.06;106871;1264;72683;-40
2023/06/09 03:58:10;;;;;;;5.60;5.00;;;;;;;18.23;64.91;99543.15;106827;1264;60397;-40
2023/06/09 04:00:39;;;;;;;8.60;5.60;;;;;;;18.29;64.91;99541.92;106722;1264;59542;-40
2023/06/09 04:03:07;;;;;;;11.10;5.80;;;;;;;18.31;64.93;99543.95;106738;1269;72454;-40
2023/06/09 04:05:35;;;;;;;6.10;5.40;;;;;;;18.34;64.77;99542.44;106774;1264;65286;-40
2023/06/09 04:08:04;;;;;;;7.30;5.40;;;;;;;18.36;64.74;99546.19;106815;1264;71411;-40
2023/06/09 04:10:32;;;;;;;9.90;5.80;;;;;;;18.36;64.80;99545.08;107045;1263;59640;-40
2023/06/09 04:12:59;;;;;;;9.10;5.10;;;;;;;18.36;64.79;99545.70;106902;1261;58794;-40
2023/06/09 04:15:27;;;;;;;11.10;5.30;;;;;;;18.41;64.80;99548.17;106912;1261;71372;-40
2023/06/09 04:17:56;;;;;;;9.40;5.90;;;;;;;18.45;64.68;99551.97;107016;1260;66316;-39
2023/06/09 04:20:27;;;;;;;6.80;5.50;;;;;;;18.48;64.76;99553.81;107007;1261;71407;-39
2023/06/09 04:22:55;;;;;;;8.20;5.60;;;;;;;18.49;64.77;99555.38;106873;1261;60052;-40
2023/06/09 04:25:26;;;;;;;9.40;6.10;;;;;;;18.48;64.89;99555.94;106936;1261;59487;-40
2023/06/09 04:28:03;;;;;;;8.90;5.50;;;;;;;18.47;64.93;99552.10;106986;1260;71766;-40
2023/06/09 04:30:34;;;;;;;10.30;5.80;;;;;;;18.50;65.03;99552.15;107018;1261;66325;-39
2023/06/09 04:33:04;;;;;;;8.50;5.70;;;;;;;18.56;65.07;99552.05;107023;1260;72654;-39
2023/06/09 04:35:32;;;;;;;8.10;5.40;;;;;;;18.62;64.87;99549.93;107020;1260;59445;-39
2023/06/09 04:38:00;;;;;;;11.80;5.90;;;;;;;18.69;64.76;99551.05;106918;1260;59608;-40
2023/06/09 04:40:31;;;;;;;6.70;5.60;;;;;;;18.74;64.84;99551.94;106840;1261;73087;-40
2023/06/09 04:42:59;;;;;;;7.00;5.30;;;;;;;18.83;64.77;99552.23;106727;1263;67590;-40
2023/06/09 04:45:28;;;;;;;6.30;5.50;;;;;;;18.97;64.66;99550.09;106685;1269;72678;-40
2023/06/09 04:48:01;;;;;;;9.20;5.30;;;;;;;19.12;64.38;99551.31;106828;1263;59627;-40
2023/06/09 04:50:32;;;;;;;8.50;6.00;;;;;;;19.25;64.12;99548.89;106787;1267;59540;-40
2023/06/09 04:53:03;;;;;;;7.30;5.50;;;;;;;19.36;63.66;99549.91;107453;1254;73043;-40
2023/06/09 04:55:35;;;;;;;7.00;5.50;;;;;;;19.48;63.08;99552.27;107262;1260;66293;-40
2023/06/09 04:58:04;;;;;;;;;;;;;;;19.61;62.66;99551.31;107292;1257;71418;-40
2023/06/09 05:00:32;;;;;;;8.60;6.30;;;;;;;19.64;62.42;99552.69;107247;1257;59621;-40
2023/06/09 05:03:02;;;;;;;9.60;6.00;;;;;;;19.69;62.64;99551.19;107311;1254;59289;-39
2023/06/09 05:05:30;;;;;;;6.40;5.20;;;;;;;19.79;62.11;99550.41;107368;1254;73154;-39
2023/06/09 05:07:59;;;;;;;7.90;5.40;;;;;;;19.90;61.10;99550.15;107455;1254;67540;-39
2023/06/09 05:10:27;;;;;;;10.40;5.70;;;;;;;19.99;60.61;99547.02;107422;1254;70411;-40
2023/06/09 05:12:55;;;;;;;6.80;5.20;;;;;;;20.08;60.23;99548.45;107353;1257;59621;-39
2023/06/09 05:15:23;;;;;;;10.60;5.70;;;;;;;20.15;60.34;99545.50;107421;1254;59295;-40
2023/06/09 05:17:52;;;;;;;9.20;5.40;;;;;;;20.22;60.11;99541.52;107393;1254;73000;-39
2023/06/09 05:20:21;;;;;;;7.50;5.20;;;;;;;20.28;59.92;99540.55;107455;1254;68092;-40
2023/06/09 05:22:49;;;;;;;9.40;6.10;;;;;;;20.36;59.71;99540.60;107402;1254;71452;-39
2023/06/09 05:25:18;;;;;;;8.80;6.00;;;;;;;20.42;59.18;99543.00;107254;1256;59640;-40
2023/06/09 05:27:46;;;;;;;7.00;5.10;;;;;;;20.50;58.94;99543.02;107334;1254;59643;-39
2023/06/09 05:30:15;;;;;;;7.50;5.20;;;;;;;20.58;58.67;99542.25;107444;1254;73105;-39
2023/06/09 05:32:45;;;;;;;6.10;5.40;;;;;;;20.64;57.51;99540.88;107405;1254;66632;-40
2023/06/09 05:35:13;;;;;;;8.50;5.40;;;;;;;20.71;57.00;99542.54;107426;1254;71067;-39
2023/06/09 05:37:50;;;;;;;7.40;5.00;;;;;;;20.77;57.22;99542.58;107242;1257;59619;-39
2023/06/09 05:40:20;;;;;;;6.90;5.10;;;;;;;20.85;57.02;99541.48;107328;1254;59474;-39
2023/06/09 05:42:49;;;;;;;6.30;5.30;;;;;;;20.93;56.92;99545.41;107364;1254;71542;-39
2023/06/09 05:45:17;;;;;;;7.10;5.30;;;;;;;21.02;55.91;99541.52;107387;1254;65974;-40
2023/06/09 05:47:45;;;;;;;7.80;5.10;;;;;;;21.12;55.98;99542.91;107371;1253;72269;-40
2023/06/09 05:50:13;;;;;;;9.10;6.00;;;;;;;21.20;55.68;99543.70;107343;1254;60128;-39
2023/06/09 05:52:41;;;;;;;7.20;5.90;;;;;;;21.29;55.22;99545.01;107384;1253;59916;-43
2023/06/09 05:55:09;;;;;;;10.70;7.20;;;;;;;21.39;55.12;99545.65;107406;1254;73618;-39
2023/06/09 05:57:36;;;;;;;10.40;7.40;;;;;;;21.49;54.59;99545.13;107448;1254;67696;-39
2023/06/09 06:00:07;;;;;;;11.40;7.50;;;;;;;21.55;54.04;99541.98;107366;1254;71541;-39
2023/06/09 06:02:45;;;;;;;11.20;9.50;;;;;;;21.62;54.22;99546.14;107361;1259;60189;-39
2023/06/09 06:05:13;;;;;;;10.10;8.20;;;;;;;21.69;54.08;99539.05;107085;1254;60064;-39
2023/06/09 06:07:41;;;;;;;12.50;7.30;;;;;;;21.79;53.31;99537.86;106966;1254;73142;-39
2023/06/09 06:10:09;;;;;;;9.30;6.50;;;;;;;21.91;53.20;99538.38;107392;1253;66797;-40
2023/06/09 06:12:38;;;;;;;6.90;5.50;;;;;;;22.01;52.66;99539.02;107309;1254;72703;-39
2023/06/09 06:15:27;;;;;;;8.80;5.70;;;;;;;22.13;51.49;99542.35;107473;1254;60094;-42
2023/06/09 06:18:03;;;;;;;7.30;5.40;;;;;;;22.19;51.65;99543.08;107379;1254;60008;-39
2023/06/09 06:20:31;;;;;;;7.90;5.50;;;;;;;22.26;51.67;99544.70;107318;1254;73540;-39
2023/06/09 06:22:59;;;;;;;10.70;5.90;;;;;;;22.37;50.90;99545.05;107387;1253;67874;-38
2023/06/09 06:25:28;;;;;;;9.50;6.00;;;;;;;22.47;50.33;99545.81;107484;1254;72982;-39
2023/06/09 06:27:56;;;;;;;8.20;6.10;;;;;;;22.56;50.39;99546.14;107394;1254;60185;-40
2023/06/09 06:30:26;;;;;;;7.80;6.20;;;;;;;22.68;50.73;99541.00;107450;1253;60873;-39
2023/06/09 06:32:54;;;;;;;9.70;6.20;;;;;;;22.76;49.91;99536.59;107426;1254;73100;-39
2023/06/09 06:35:23;;;;;;;7.90;6.10;;;;;;;22.87;48.52;99541.34;107491;1254;67895;-40
2023/06/09 06:37:50;;;;;;;8.70;7.10;;;;;;;22.93;48.06;99541.87;107457;1253;72673;-39
2023/06/09 06:40:18;;;;;;;9.40;7.30;;;;;;;23.02;48.74;99542.67;107371;1254;60262;-39
2023/06/09 06:42:46;;;;;;;12.30;8.80;;;;;;;23.10;48.18;99541.88;107352;1254;59535;-39
2023/06/09 06:45:16;;;;;;;;;;;;;;;23.18;48.40;99542.67;107339;1253;71781;-39
2023/06/09 06:47:45;;;;;;;16.40;10.00;;;;;;;23.19;48.53;99542.33;107347;1254;66754;-39
2023/06/09 06:50:13;;;;;;;14.90;11.10;;;;;;;23.22;48.66;99541.36;107350;1254;74503;-40
2023/06/09 06:52:41;;;;;;;8.40;5.40;;;;;;;23.33;47.39;99543.08;107371;1254;60053;-39
2023/06/09 06:55:09;;;;;;;7.70;4.60;;;;;;;23.45;46.60;99539.98;107324;1254;60043;-39
2023/06/09 06:57:38;;;;;;;5.90;5.00;;;;;;;23.55;46.40;99540.55;107207;1254;71806;-40
2023/06/09 07:00:10;;;;;;;6.40;5.30;;;;;;;23.67;45.88;99541.04;107407;1254;67243;-40
2023/06/09 07:02:38;;;;;;;8.30;5.40;;;;;;;23.77;45.80;99540.80;107564;1256;72664;-40
2023/06/09 07:05:06;;;;;;;5.70;4.40;;;;;;;23.90;46.21;99543.73;107479;1254;59725;-39
2023/06/09 07:07:37;;;;;;;7.40;4.30;;;;;;;24.04;45.00;99536.77;107446;1254;60123;-41
2023/06/09 07:10:08;;;;;;;5.90;3.70;;;;;;;24.18;44.55;99538.27;107328;1253;73049;-40
2023/06/09 07:12:36;;;;;;;7.60;4.50;;;;;;;24.31;44.22;99535.14;107441;1259;66160;-40
2023/06/09 07:15:06;;;;;;;6.90;4.90;;;;;;;24.44;43.68;99536.29;107426;1254;71420;-41
2023/06/09 07:17:38;;;;;;;6.60;3.80;;;;;;;24.53;43.74;99531.21;107425;1258;60769;-41
2023/06/09 07:20:20;;;;;;;9.10;4.20;;;;;;;24.68;42.43;99537.73;107502;1254;60209;-43
2023/06/09 07:22:54;;;;;;;4.60;3.70;;;;;;;24.78;41.95;99532.70;107242;1254;72581;-45
2023/06/09 07:25:25;;;;;;;5.50;3.80;;;;;;;24.86;41.51;99537.66;107099;1254;66535;-42
2023/06/09 07:28:05;;;;;;;4.50;3.70;;;;;;;24.94;41.05;99530.58;107006;1261;71788;-41
2023/06/09 07:30:46;;;;;;;5.30;3.80;;;;;;;25.04;41.14;99529.63;107514;1253;60398;-43
2023/06/09 07:33:20;;;;;;;5.00;3.60;;;;;;;25.15;41.51;99525.27;107397;1253;60319;-45
2023/06/09 07:36:00;;;;;;;9.10;3.90;;;;;;;25.27;41.28;99530.98;107464;1253;73692;-42
2023/06/09 07:39:03;;;;;;;4.00;3.40;;;;;;;25.36;41.05;99528.38;107236;1253;66452;-41
2023/06/09 07:41:41;;;;;;;6.30;2.60;;;;;;;25.48;39.85;99526.24;107268;1257;74710;-42
2023/06/09 07:44:12;;;;;;;5.60;3.00;;;;;;;25.60;37.46;99526.14;107438;1253;62546;-41
2023/06/09 07:46:55;;;;;;;4.70;3.00;;;;;;;25.65;36.56;99529.42;107294;1253;60597;-41
2023/06/09 07:49:23;;;;;;;5.80;3.20;;;;;;;25.69;36.48;99525.80;107380;1253;73795;-40
2023/06/09 07:51:52;;;;;;;3.70;3.00;;;;;;;25.78;37.22;99523.77;107235;1253;66755;-40
2023/06/09 07:54:21;;;;;;;14.90;4.40;;;;;;;25.91;37.17;99527.40;107321;1256;71534;-40
2023/06/09 07:56:50;;;;;;;4.10;3.20;;;;;;;26.04;36.14;99527.44;107371;1258;60413;-40
2023/06/09 07:59:18;;;;;;;8.30;3.30;;;;;;;26.12;35.66;99525.04;107367;1254;60433;-40
2023/06/09 08:01:46;;;;;;;7.60;3.50;;;;;;;26.18;35.88;99523.75;107430;1253;73920;-40
2023/06/09 08:04:15;;;;;;;4.00;2.90;;;;;;;26.25;35.52;99526.36;107347;1258;66662;-41
2023/06/09 08:06:44;;;;;;;5.50;3.50;;;;;;;26.29;35.56;99527.05;107385;1253;72875;-41
2023/06/09 08:09:12;;;;;;;6.50;3.10;;;;;;;26.38;35.42;99525.71;107322;1253;60622;-40
2023/06/09 08:11:40;;;;;;;7.00;3.10;;;;;;;26.53;35.41;99521.52;107285;1253;59239;-40
2023/06/09 08:14:08;;;;;;;3.20;2.70;;;;;;;26.69;35.00;99524.90;107370;1254;73947;-41
2023/06/09 08:16:35;;;;;;;3.80;2.90;;;;;;;26.86;34.31;99523.36;107393;1253;67565;-41
2023/06/09 08:19:03;;;;;;;7.00;3.00;;;;;;;27.04;33.73;99518.88;107352;1256;71415;-41
2023/06/09 08:21:31;;;;;;;5.80;3.00;;;;;;;27.20;33.89;99518.65;107388;1254;60451;-41
2023/06/09 08:23:59;;;;;;;4.00;2.90;;;;;;;27.34;34.20;99526.12;107232;1254;60638;-39
2023/06/09 08:26:28;;;;;;;4.60;2.80;;;;;;;27.41;33.73;99519.50;107465;1253;73972;-41
2023/06/09 08:28:55;;;;;;;7.80;3.30;;;;;;;27.49;33.62;99518.66;107490;1254;67764;-40
2023/06/09 08:31:24;;;;;;;6.10;3.10;;;;;;;27.58;33.41;99516.00;107302;1258;71439;-39
2023/06/09 08:33:53;;;;;;;5.10;3.20;;;;;;;27.67;33.25;99513.08;107287;1254;60403;-40
2023/06/09 08:36:21;;;;;;;5.80;3.40;;;;;;;27.81;33.34;99510.65;107307;1253;60345;-39
2023/06/09 08:38:49;;;;;;;4.30;3.60;;;;;;;27.97;32.50;99511.05;107355;1253;72615;-41
2023/06/09 08:41:16;;;;;;;13.40;4.60;;;;;;;28.12;32.88;99507.07;107363;1253;68016;-39
2023/06/09 08:43:44;;;;;;;8.30;3.80;;;;;;;28.22;32.79;99506.01;107361;1253;72661;-40
2023/06/09 08:46:12;;;;;;;6.30;3.80;;;;;;;28.20;32.14;99505.38;107282;1253;60455;-39
2023/06/09 08:48:50;;;;;;;4.80;2.80;;;;;;;28.07;32.33;99505.53;107328;1253;60534;-40
2023/06/09 08:51:21;;;;;;;4.10;3.30;;;;;;;28.02;32.67;99508.07;107439;1253;72572;-41
2023/06/09 08:53:54;;;;;;;5.90;3.20;;;;;;;28.11;32.56;99504.72;107162;1253;68222;-41
2023/06/09 08:56:23;;;;;;;5.00;3.50;;;;;;;28.27;32.40;99506.06;107140;1253;74658;-40
2023/06/09 08:58:51;;;;;;;5.20;3.00;;;;;;;28.37;32.84;99500.78;107261;1253;61049;-39
2023/06/09 09:01:19;;;;;;;7.00;3.50;;;;;;;28.44;32.85;99499.36;107332;1254;60291;-40
2023/06/09 09:03:48;;;;;;;4.80;3.60;;;;;;;28.45;32.16;99495.39;107278;1254;73988;-40
2023/06/09 09:06:16;;;;;;;5.80;3.00;;;;;;;28.43;32.97;99498.18;107463;1253;67897;-40
2023/06/09 09:08:44;;;;;;;4.70;3.10;;;;;;;28.51;31.79;99497.06;107336;1253;72667;-41
2023/06/09 09:11:12;;;;;;;11.90;3.60;;;;;;;28.59;30.76;99496.45;107359;1254;59220;-41
2023/06/09 09:13:40;;;;;;;6.30;3.40;;;;;;;28.56;30.20;99500.65;107297;1254;60353;-41
2023/06/09 09:16:13;;;;;;;6.30;3.40;;;;;;;28.41;30.61;99493.63;107293;1254;73868;-41
2023/06/09 09:18:46;;;;;;;5.60;3.10;;;;;;;28.28;30.60;99491.64;107292;1253;67917;-41
2023/06/09 09:21:21;;;;;;;4.10;2.80;;;;;;;28.19;30.88;99493.08;107304;1255;72695;-41
2023/06/09 09:24:07;;;;;;;4.00;2.80;;;;;;;28.15;30.28;99488.27;107493;1253;60270;-40
2023/06/09 09:26:35;;;;;;;3.60;2.70;;;;;;;28.18;31.14;99492.21;107395;1258;60488;-41
2023/06/09 09:29:06;;;;;;;7.20;3.30;;;;;;;28.32;30.51;99488.67;107389;1254;72583;-41
2023/06/09 09:31:37;;;;;;;4.70;2.70;;;;;;;28.51;29.53;99488.84;107376;1253;67767;-41
2023/06/09 09:34:10;;;;;;;7.60;2.90;;;;;;;28.68;28.44;99487.98;107386;1258;72741;-41
2023/06/09 09:36:45;;;;;;;8.40;3.10;;;;;;;28.77;28.25;99491.40;107160;1256;60543;-41
2023/06/09 09:39:14;;;;;;;5.70;3.70;;;;;;;28.79;28.41;99489.05;107389;1253;60965;-41
2023/06/09 09:42:04;;;;;;;6.20;3.40;;;;;;;28.83;28.20;99487.65;107383;1253;73929;-41
2023/06/09 09:44:41;;;;;;;3.50;2.80;;;;;;;28.94;28.81;99486.73;107371;1253;67903;-40
2023/06/09 09:47:12;;;;;;;7.40;2.50;;;;;;;29.04;29.29;99486.32;108889;1254;71454;-40
2023/06/09 09:50:01;;;;;;;4.90;2.90;;;;;;;29.12;29.62;99486.51;107439;1253;60922;-41
2023/06/09 09:52:31;;;;;;;6.20;3.00;;;;;;;29.22;29.49;99480.63;107232;1253;60324;-40
2023/06/09 09:54:58;;;;;;;;;;;;;;;29.24;29.35;99482.94;107618;1253;73881;-40
2023/06/09 09:57:28;;;;;;;4.00;2.60;;;;;;;29.15;29.52;99481.93;107366;1253;67872;-40
2023/06/09 09:59:59;;;;;;;6.00;2.90;;;;;;;29.00;29.24;99478.20;107279;1255;73157;-40
2023/06/09 10:02:26;;;;;;;8.40;3.10;;;;;;;28.84;29.69;99481.56;107327;1254;60405;-40
2023/06/09 10:04:58;;;;;;;4.20;3.00;;;;;;;28.73;30.25;99479.94;107313;1254;60307;-40
2023/06/09 10:07:26;;;;;;;4.10;3.10;;;;;;;28.66;30.40;99483.86;107421;1253;73874;-40
2023/06/09 10:09:54;;;;;;;4.00;3.20;;;;;;;28.65;29.94;99480.79;107445;1253;67584;-40
2023/06/09 10:12:21;;;;;;;7.50;4.00;;;;;;;28.62;29.38;99481.09;107276;1253;72695;-40
2023/06/09 10:14:49;;;;;;;5.00;2.80;;;;;;;28.56;29.60;99478.80;107214;1254;60445;-40
2023/06/09 10:17:18;;;;;;;4.50;2.90;;;;;;;28.50;30.13;99474.89;107405;1257;60303;-40
2023/06/09 10:19:50;;;;;;;3.80;2.80;;;;;;;28.43;29.71;99469.86;107546;1255;73825;-40
2023/06/09 10:22:18;;;;;;;4.80;2.50;;;;;;;28.36;29.98;99465.29;107324;1253;67574;-40
2023/06/09 10:24:46;;;;;;;3.90;3.30;;;;;;;28.28;29.89;99463.20;107341;1253;72673;-40
2023/06/09 10:27:14;;;;;;;6.30;2.80;;;;;;;28.18;30.21;99464.38;107361;1253;60381;-40
2023/06/09 10:29:42;;;;;;;5.80;2.80;;;;;;;28.07;30.43;99463.63;107465;1253;60385;-40
2023/06/09 10:32:11;;;;;;;4.40;3.00;;;;;;;27.94;30.47;99459.45;107517;1253;73880;-40
2023/06/09 10:34:40;;;;;;;6.10;3.10;;;;;;;27.85;31.11;99460.28;107539;1253;68333;-40
2023/06/09 10:37:08;;;;;;;4.10;3.00;;;;;;;27.75;31.42;99456.98;107385;1254;72688;-40
2023/06/09 10:39:54;;;;;;;4.90;2.90;;;;;;;27.68;32.13;99453.52;107190;1254;60531;-40
2023/06/09 10:42:30;;;;;;;3.50;2.70;;;;;;;27.62;32.62;99450.22;107418;1257;60253;-41
2023/06/09 10:45:19;;;;;;;5.40;3.10;;;;;;;27.58;32.76;99451.64;107391;1253;73893;-40
2023/06/09 10:47:48;;;;;;;4.60;2.80;;;;;;;27.53;33.06;99447.08;107540;1253;68250;-40
2023/06/09 10:50:26;;;;;;;4.70;2.90;;;;;;;27.45;31.88;99446.31;107516;1253;72736;-40
2023/06/09 10:52:57;;;;;;;6.40;2.80;;;;;;;27.39;31.81;99446.33;107536;1252;60406;-39
2023/06/09 10:55:27;;;;;;;4.50;2.90;;;;;;;27.36;31.87;99444.64;107432;1253;59998;-40
2023/06/09 10:57:55;;;;;;;9.20;3.00;;;;;;;27.36;32.41;99443.67;107582;1252;73883;-40
2023/06/09 11:00:23;;;;;;;6.30;2.50;;;;;;;27.39;32.85;99443.31;107445;1257;67641;-40
2023/06/09 11:03:12;;;;;;;4.10;2.50;;;;;;;27.41;32.83;99438.66;107438;1254;71698;-40
2023/06/09 11:05:42;;;;;;;14.70;2.90;;;;;;;27.45;33.02;99434.55;107458;1253;60477;-40
2023/06/09 11:08:09;;;;;;;3.60;2.80;;;;;;;27.45;32.50;99434.00;107470;1254;60425;-40
2023/06/09 11:10:37;;;;;;;3.70;2.90;;;;;;;27.47;32.62;99432.02;107397;1255;72559;-40
2023/06/09 11:13:50;;;;;;;7.70;3.20;;;;;;;27.45;32.07;99434.31;107367;1254;67571;-40
2023/06/09 11:16:18;;;;;;;4.00;3.00;;;;;;;27.39;32.06;99425.97;107394;1254;72683;-40
2023/06/09 11:18:45;;;;;;;5.40;3.00;;;;;;;27.30;32.29;99422.11;107466;1254;60313;-40
2023/06/09 11:21:19;;;;;;;5.50;3.10;;;;;;;27.25;32.19;99419.27;107449;1254;59673;-39
2023/06/09 11:24:00;;;;;;;7.20;2.80;;;;;;;27.22;32.14;99418.15;107424;1254;73835;-39
2023/06/09 11:26:29;;;;;;;9.90;3.00;;;;;;;27.19;32.71;99420.31;107404;1254;67621;-39
2023/06/09 11:28:57;;;;;;;6.90;3.00;;;;;;;27.15;32.91;99417.48;107541;1254;72668;-40
2023/06/09 11:31:26;;;;;;;5.20;3.00;;;;;;;27.13;33.21;99417.27;107568;1251;60436;-40
2023/06/09 11:33:55;;;;;;;;;;;;;;;27.12;33.39;99411.22;107647;1251;60274;-40
2023/06/09 11:36:25;;;;;;;5.80;3.00;;;;;;;27.05;33.38;99411.93;107692;1254;73903;-40
2023/06/09 11:38:57;;;;;;;;;;;;;;;27.00;33.31;99406.66;107741;1254;67526;-40
2023/06/09 11:41:25;;;;;;;6.40;3.20;;;;;;;26.99;33.16;99407.99;107610;1255;72550;-40